sensor_id;sensor_type;location;lat;lon;timestamp;pressure;altitude;pressure_sealevel;temperature;humidity
62333;BME280;48624;49.812;8.562;2023-02-12T00:01:46;102700.13;;;6.24;84.75
62333;BME280;48624;49.812;8.562;2023-02-12T00:04:12;102708.03;;;6.24;84.76
62333;BME280;48624;49.812;8.562;2023-02-12T00:06:38;102708.97;;;6.19;85.13
62333;BME280;48624;49.812;8.562;2023-02-12T00:09:04;102702.03;;;6.13;85.34
62333;BME280;48624;49.812;8.562;2023-02-12T00:11:31;102706.81;;;5.78;87.35
62333;BME280;48624;49.812;8.562;2023-02-12T00:13:57;102719.91;;;5.81;87.29
62333;BME280;48624;49.812;8.562;2023-02-12T00:16:25;102716.59;;;5.67;87.29
62333;BME280;48624;49.812;8.562;2023-02-12T00:18:52;102714.94;;;5.55;88.51
62333;BME280;48624;49.812;8.562;2023-02-12T00:21:18;102717.53;;;5.58;87.98
62333;BME280;48624;49.812;8.562;2023-02-12T00:23:44;102710.63;;;5.49;87.95
62333;BME280;48624;49.812;8.562;2023-02-12T00:26:12;102711.47;;;5.50;88.72
62333;BME280;48624;49.812;8.562;2023-02-12T00:28:38;102716.69;;;5.56;88.09
62333;BME280;48624;49.812;8.562;2023-02-12T00:31:13;102714.94;;;5.55;88.18
62333;BME280;48624;49.812;8.562;2023-02-12T00:33:39;102719.22;;;5.64;87.78
62333;BME280;48624;49.812;8.562;2023-02-12T00:36:05;102713.91;;;5.72;87.57
62333;BME280;48624;49.812;8.562;2023-02-12T00:38:31;102716.50;;;5.76;87.20
62333;BME280;48624;49.812;8.562;2023-02-12T00:40:57;102716.44;;;5.79;87.15
62333;BME280;48624;49.812;8.562;2023-02-12T00:43:22;102721.66;;;5.86;86.97
62333;BME280;48624;49.812;8.562;2023-02-12T00:45:47;102726.00;;;5.87;86.68
62333;BME280;48624;49.812;8.562;2023-02-12T00:48:14;102720.69;;;5.93;86.48
62333;BME280;48624;49.812;8.562;2023-02-12T00:50:39;102715.44;;;5.93;86.92
62333;BME280;48624;49.812;8.562;2023-02-12T00:53:06;102716.25;;;5.96;86.61
62333;BME280;48624;49.812;8.562;2023-02-12T00:55:31;102724.13;;;6.00;86.77
62333;BME280;48624;49.812;8.562;2023-02-12T00:57:57;102713.56;;;6.01;86.58
62333;BME280;48624;49.812;8.562;2023-02-12T01:00:22;102715.31;;;6.02;86.47
62333;BME280;48624;49.812;8.562;2023-02-12T01:02:48;102713.56;;;6.03;86.34
62333;BME280;48624;49.812;8.562;2023-02-12T01:05:13;102717.09;;;6.02;86.21
62333;BME280;48624;49.812;8.562;2023-02-12T01:07:39;102724.09;;;6.03;86.39
62333;BME280;48624;49.812;8.562;2023-02-12T01:10:05;102729.34;;;6.01;86.50
62333;BME280;48624;49.812;8.562;2023-02-12T01:12:31;102726.72;;;6.01;86.46
62333;BME280;48624;49.812;8.562;2023-02-12T01:14:58;102724.13;;;6.00;86.49
62333;BME280;48624;49.812;8.562;2023-02-12T01:17:23;102717.97;;;5.99;86.77
62333;BME280;48624;49.812;8.562;2023-02-12T01:19:49;102728.47;;;6.02;86.13
62333;BME280;48624;49.812;8.562;2023-02-12T01:22:15;102715.31;;;6.05;85.93
62333;BME280;48624;49.812;8.562;2023-02-12T01:24:40;102718.81;;;6.01;86.63
62333;BME280;48624;49.812;8.562;2023-02-12T01:27:06;102710.91;;;6.06;86.19
62333;BME280;48624;49.812;8.562;2023-02-12T01:29:31;102715.25;;;6.10;85.81
62333;BME280;48624;49.812;8.562;2023-02-12T01:31:56;102712.56;;;6.13;85.29
62333;BME280;48624;49.812;8.562;2023-02-12T01:34:21;102705.56;;;6.10;85.55
62333;BME280;48624;49.812;8.562;2023-02-12T01:36:47;102709.09;;;6.09;85.66
62333;BME280;48624;49.812;8.562;2023-02-12T01:39:12;102706.44;;;6.13;85.10
62333;BME280;48624;49.812;8.562;2023-02-12T01:41:41;102708.25;;;6.09;85.37
62333;BME280;48624;49.812;8.562;2023-02-12T01:44:19;102708.25;;;6.07;85.21
62333;BME280;48624;49.812;8.562;2023-02-12T01:46:48;102705.63;;;6.06;85.81
62333;BME280;48624;49.812;8.562;2023-02-12T01:49:18;102704.81;;;6.01;85.79
62333;BME280;48624;49.812;8.562;2023-02-12T01:51:47;102709.19;;;6.00;86.13
62333;BME280;48624;49.812;8.562;2023-02-12T01:54:16;102702.22;;;5.96;86.27
62333;BME280;48624;49.812;8.562;2023-02-12T01:56:43;102712.81;;;5.90;86.56
62333;BME280;48624;49.812;8.562;2023-02-12T01:59:08;102705.75;;;5.92;86.47
62333;BME280;48624;49.812;8.562;2023-02-12T02:01:35;102707.50;;;5.94;86.21
62333;BME280;48624;49.812;8.562;2023-02-12T02:04:07;102711.91;;;5.94;86.09
62333;BME280;48624;49.812;8.562;2023-02-12T02:06:39;102704.84;;;5.96;86.32
62333;BME280;48624;49.812;8.562;2023-02-12T02:09:08;102703.97;;;5.99;86.18
62333;BME280;48624;49.812;8.562;2023-02-12T02:11:33;102693.44;;;5.95;86.34
62333;BME280;48624;49.812;8.562;2023-02-12T02:14:17;102701.34;;;5.95;86.43
62333;BME280;48624;49.812;8.562;2023-02-12T02:17:23;102703.22;;;5.86;86.20
62333;BME280;48624;49.812;8.562;2023-02-12T02:25:55;102700.50;;;5.93;86.34
62333;BME280;48624;49.812;8.562;2023-02-12T02:28:45;102699.59;;;5.94;86.31
62333;BME280;48624;49.812;8.562;2023-02-12T02:37:07;102700.41;;;6.01;86.36
62333;BME280;48624;49.812;8.562;2023-02-12T02:39:47;102700.44;;;5.96;86.48
62333;BME280;48624;49.812;8.562;2023-02-12T02:48:31;102700.44;;;5.96;86.28
62333;BME280;48624;49.812;8.562;2023-02-12T02:51:03;102711.03;;;5.92;87.12
62333;BME280;48624;49.812;8.562;2023-02-12T02:53:53;102708.28;;;6.01;86.10
62333;BME280;48624;49.812;8.562;2023-02-12T02:56:22;102703.97;;;5.97;86.85
62333;BME280;48624;49.812;8.562;2023-02-12T02:59:02;102702.28;;;5.93;86.63
62333;BME280;48624;49.812;8.562;2023-02-12T03:01:32;102698.72;;;5.95;87.04
62333;BME280;48624;49.812;8.562;2023-02-12T03:04:06;102706.59;;;5.99;86.63
62333;BME280;48624;49.812;8.562;2023-02-12T03:06:46;102701.38;;;5.94;87.24
62333;BME280;48624;49.812;8.562;2023-02-12T03:09:19;102698.69;;;5.97;87.14
62333;BME280;48624;49.812;8.562;2023-02-12T03:11:45;102708.50;;;5.86;87.67
62333;BME280;48624;49.812;8.562;2023-02-12T03:17:16;102697.88;;;5.93;87.12
62333;BME280;48624;49.812;8.562;2023-02-12T03:19:56;102704.06;;;5.89;87.04
62333;BME280;48624;49.812;8.562;2023-02-12T03:22:30;102697.03;;;5.90;87.33
62333;BME280;48624;49.812;8.562;2023-02-12T03:25:06;102697.88;;;5.93;86.99
62333;BME280;48624;49.812;8.562;2023-02-12T03:27:38;102700.50;;;5.93;87.32
62333;BME280;48624;49.812;8.562;2023-02-12T03:30:06;102703.97;;;5.99;87.13
62333;BME280;48624;49.812;8.562;2023-02-12T03:32:51;102705.75;;;5.92;87.05
62333;BME280;48624;49.812;8.562;2023-02-12T03:35:36;102711.91;;;5.92;87.56
62333;BME280;48624;49.812;8.562;2023-02-12T03:38:44;102695.28;;;5.87;87.22
62333;BME280;48624;49.812;8.562;2023-02-12T03:41:27;102703.84;;;6.09;86.39
62333;BME280;48624;49.812;8.562;2023-02-12T03:44:13;102707.66;;;5.82;87.51
62333;BME280;48624;49.812;8.562;2023-02-12T03:49:20;102701.69;;;5.66;88.66
62333;BME280;48624;49.812;8.562;2023-02-12T03:51:47;102707.66;;;5.80;88.42
62333;BME280;48624;49.812;8.562;2023-02-12T03:54:16;102711.09;;;5.87;88.00
62333;BME280;48624;49.812;8.562;2023-02-12T03:56:56;102711.06;;;5.90;87.59
62333;BME280;48624;49.812;8.562;2023-02-12T03:59:24;102703.97;;;5.97;87.45
62333;BME280;48624;49.812;8.562;2023-02-12T04:01:52;102703.91;;;6.00;87.43
62333;BME280;48624;49.812;8.562;2023-02-12T04:04:18;102706.59;;;5.99;87.57
62333;BME280;48624;49.812;8.562;2023-02-12T04:06:45;102703.06;;;6.00;87.49
62333;BME280;48624;49.812;8.562;2023-02-12T04:09:12;102708.31;;;6.03;87.63
62333;BME280;48624;49.812;8.562;2023-02-12T04:11:48;102707.34;;;6.10;86.69
62333;BME280;48624;49.812;8.562;2023-02-12T04:14:49;102713.53;;;6.07;86.86
62333;BME280;48624;49.812;8.562;2023-02-12T04:17:27;102716.16;;;6.06;86.92
62333;BME280;48624;49.812;8.562;2023-02-12T04:28:12;102724.94;;;6.05;86.94
62333;BME280;48624;49.812;8.562;2023-02-12T04:30:46;102728.41;;;6.10;87.35
62333;BME280;48624;49.812;8.562;2023-02-12T04:33:17;102725.72;;;6.13;86.91
62333;BME280;48624;49.812;8.562;2023-02-12T04:36:08;102730.16;;;6.11;86.73
62333;BME280;48624;49.812;8.562;2023-02-12T04:38:45;102736.25;;;6.15;86.78
62333;BME280;48624;49.812;8.562;2023-02-12T04:41:12;102731.88;;;6.12;87.19
62333;BME280;48624;49.812;8.562;2023-02-12T04:43:39;102742.38;;;6.15;87.24
62333;BME280;48624;49.812;8.562;2023-02-12T04:46:06;102744.94;;;6.20;87.08
62333;BME280;48624;49.812;8.562;2023-02-12T04:48:32;102744.97;;;6.18;87.28
62333;BME280;48624;49.812;8.562;2023-02-12T04:50:59;102740.56;;;6.22;87.05
62333;BME280;48624;49.812;8.562;2023-02-12T04:53:25;102743.19;;;6.22;87.47
62333;BME280;48624;49.812;8.562;2023-02-12T04:55:50;102740.50;;;6.23;87.21
62333;BME280;48624;49.812;8.562;2023-02-12T04:58:16;102744.88;;;6.26;86.92
62333;BME280;48624;49.812;8.562;2023-02-12T05:00:43;102743.19;;;6.20;87.05
62333;BME280;48624;49.812;8.562;2023-02-12T05:03:09;102740.56;;;6.19;87.09
62333;BME280;48624;49.812;8.562;2023-02-12T05:05:35;102738.84;;;6.16;87.14
62333;BME280;48624;49.812;8.562;2023-02-12T05:08:00;102745.09;;;6.09;87.86
62333;BME280;48624;49.812;8.562;2023-02-12T05:10:26;102736.31;;;6.08;87.32
62333;BME280;48624;49.812;8.562;2023-02-12T05:12:52;102744.25;;;6.05;87.57
62333;BME280;48624;49.812;8.562;2023-02-12T05:15:18;102729.31;;;6.07;87.04
62333;BME280;48624;49.812;8.562;2023-02-12T05:17:43;102732.03;;;5.96;87.60
62333;BME280;48624;49.812;8.562;2023-02-12T05:20:10;102736.38;;;6.01;87.66
62333;BME280;48624;49.812;8.562;2023-02-12T05:22:36;102731.22;;;5.93;87.47
62333;BME280;48624;49.812;8.562;2023-02-12T05:25:02;102730.38;;;5.86;87.70
62333;BME280;48624;49.812;8.562;2023-02-12T05:27:28;102733.06;;;5.83;87.84
62333;BME280;48624;49.812;8.562;2023-02-12T05:29:53;102734.75;;;5.87;87.40
62333;BME280;48624;49.812;8.562;2023-02-12T05:32:18;102738.28;;;5.89;87.06
62333;BME280;48624;49.812;8.562;2023-02-12T05:34:44;102733.91;;;5.85;87.50
62333;BME280;48624;49.812;8.562;2023-02-12T05:37:09;102738.47;;;5.69;88.88
62333;BME280;48624;49.812;8.562;2023-02-12T05:39:34;102732.41;;;5.61;89.26
62333;BME280;48624;49.812;8.562;2023-02-12T05:41:59;102730.09;;;5.31;90.83
62333;BME280;48624;49.812;8.562;2023-02-12T05:44:25;102725.81;;;5.18;92.36
62333;BME280;48624;49.812;8.562;2023-02-12T05:46:50;102734.53;;;5.21;91.54
62333;BME280;48624;49.812;8.562;2023-02-12T05:49:15;102731.88;;;5.26;91.33
62333;BME280;48624;49.812;8.562;2023-02-12T05:51:41;102730.25;;;5.12;91.25
62333;BME280;48624;49.812;8.562;2023-02-12T05:54:06;102737.13;;;5.24;91.46
62333;BME280;48624;49.812;8.562;2023-02-12T05:56:35;102734.63;;;5.10;92.02
62333;BME280;48624;49.812;8.562;2023-02-12T05:59:07;102731.94;;;5.17;91.65
62333;BME280;48624;49.812;8.562;2023-02-12T06:01:41;102731.97;;;5.15;91.07
62333;BME280;48624;49.812;8.562;2023-02-12T06:04:12;102737.31;;;5.01;92.22
62333;BME280;48624;49.812;8.562;2023-02-12T06:06:39;102735.47;;;5.14;92.12
62333;BME280;48624;49.812;8.562;2023-02-12T06:09:08;102735.47;;;5.14;91.46
62333;BME280;48624;49.812;8.562;2023-02-12T06:11:35;102727.63;;;5.09;91.95
62333;BME280;48624;49.812;8.562;2023-02-12T06:14:04;102731.22;;;5.00;93.35
62333;BME280;48624;49.812;8.562;2023-02-12T06:16:31;102727.63;;;5.11;91.76
62333;BME280;48624;49.812;8.562;2023-02-12T06:18:57;102732.91;;;5.05;90.80
62333;BME280;48624;49.812;8.562;2023-02-12T06:21:26;102719.69;;;5.16;89.84
62333;BME280;48624;49.812;8.562;2023-02-12T06:23:51;102729.50;;;4.92;92.54
62333;BME280;48624;49.812;8.562;2023-02-12T06:26:17;102733.03;;;4.91;92.96
62333;BME280;48624;49.812;8.562;2023-02-12T06:28:43;102725.97;;;4.97;92.41
62333;BME280;48624;49.812;8.562;2023-02-12T06:31:36;102731.25;;;4.93;92.24
62333;BME280;48624;49.812;8.562;2023-02-12T06:34:05;102728.56;;;5.05;91.37
62333;BME280;48624;49.812;8.562;2023-02-12T06:36:35;102734.72;;;4.98;92.89
62333;BME280;48624;49.812;8.562;2023-02-12T06:39:01;102735.53;;;5.05;92.62
62333;BME280;48624;49.812;8.562;2023-02-12T06:41:27;102744.25;;;5.11;92.11
62333;BME280;48624;49.812;8.562;2023-02-12T06:43:52;102745.97;;;5.16;92.01
62333;BME280;48624;49.812;8.562;2023-02-12T06:46:18;102745.94;;;5.22;91.91
62333;BME280;48624;49.812;8.562;2023-02-12T06:48:44;102752.88;;;5.29;91.59
62333;BME280;48624;49.812;8.562;2023-02-12T06:51:15;102763.28;;;5.41;90.37
62333;BME280;48624;49.812;8.562;2023-02-12T06:53:41;102758.97;;;5.33;92.31
62333;BME280;48624;49.812;8.562;2023-02-12T06:56:08;102758.09;;;5.34;93.16
62333;BME280;48624;49.812;8.562;2023-02-12T06:58:36;102772.91;;;5.41;92.92
62333;BME280;48624;49.812;8.562;2023-02-12T07:01:14;102768.59;;;5.35;93.15
62333;BME280;48624;49.812;8.562;2023-02-12T07:03:42;102773.69;;;5.52;92.51
62333;BME280;48624;49.812;8.562;2023-02-12T07:06:08;102778.19;;;5.43;92.52
62333;BME280;48624;49.812;8.562;2023-02-12T07:08:33;102775.59;;;5.38;93.46
62333;BME280;48624;49.812;8.562;2023-02-12T07:10:59;102780.81;;;5.39;93.41
62333;BME280;48624;49.812;8.562;2023-02-12T07:13:24;102783.44;;;5.43;93.73
62333;BME280;48624;49.812;8.562;2023-02-12T07:15:49;102781.66;;;5.43;93.58
62333;BME280;48624;49.812;8.562;2023-02-12T07:18:14;102779.97;;;5.39;94.49
62333;BME280;48624;49.812;8.562;2023-02-12T07:20:40;102784.25;;;5.49;93.60
62333;BME280;48624;49.812;8.562;2023-02-12T07:23:06;102780.66;;;5.58;94.03
62333;BME280;48624;49.812;8.562;2023-02-12T07:25:31;102781.50;;;5.62;93.50
62333;BME280;48624;49.812;8.562;2023-02-12T07:27:57;102785.81;;;5.67;93.40
62333;BME280;48624;49.812;8.562;2023-02-12T07:30:22;102782.28;;;5.72;93.13
62333;BME280;48624;49.812;8.562;2023-02-12T07:32:47;102780.78;;;5.44;95.44
62333;BME280;48624;49.812;8.562;2023-02-12T07:35:12;102785.00;;;5.61;93.75
62333;BME280;48624;49.812;8.562;2023-02-12T07:37:38;102787.56;;;5.68;92.85
62333;BME280;48624;49.812;8.562;2023-02-12T07:40:04;102797.28;;;5.62;93.55
62333;BME280;48624;49.812;8.562;2023-02-12T07:42:30;102786.88;;;5.49;93.99
62333;BME280;48624;49.812;8.562;2023-02-12T07:44:55;102784.03;;;5.73;93.64
62333;BME280;48624;49.812;8.562;2023-02-12T07:47:21;102787.50;;;5.73;93.92
62333;BME280;48624;49.812;8.562;2023-02-12T07:49:47;102796.41;;;5.61;95.45
62333;BME280;48624;49.812;8.562;2023-02-12T07:52:12;102798.84;;;5.81;93.87
62333;BME280;48624;49.812;8.562;2023-02-12T07:54:38;102802.31;;;5.85;93.65
62333;BME280;48624;49.812;8.562;2023-02-12T07:57:03;102798.19;;;5.58;96.21
62333;BME280;48624;49.812;8.562;2023-02-12T07:59:28;102807.84;;;5.60;96.62
62333;BME280;48624;49.812;8.562;2023-02-12T08:01:54;102806.06;;;5.59;97.43
62333;BME280;48624;49.812;8.562;2023-02-12T08:04:22;102804.28;;;5.64;96.08
62333;BME280;48624;49.812;8.562;2023-02-12T08:06:49;102810.50;;;5.52;96.87
62333;BME280;48624;49.812;8.562;2023-02-12T08:09:22;102812.25;;;5.57;96.89
62333;BME280;48624;49.812;8.562;2023-02-12T08:11:48;102803.59;;;5.42;97.71
62333;BME280;48624;49.812;8.562;2023-02-12T08:14:16;102805.34;;;5.40;98.39
62333;BME280;48624;49.812;8.562;2023-02-12T08:16:43;102805.41;;;5.37;99.52
62333;BME280;48624;49.812;8.562;2023-02-12T08:19:11;102816.81;;;5.33;100.00
62333;BME280;48624;49.812;8.562;2023-02-12T08:21:37;102807.13;;;5.36;100.00
62333;BME280;48624;49.812;8.562;2023-02-12T08:24:03;102805.34;;;5.38;100.00
62333;BME280;48624;49.812;8.562;2023-02-12T08:26:32;102806.38;;;5.19;100.00
62333;BME280;48624;49.812;8.562;2023-02-12T08:29:00;102813.25;;;5.40;100.00
62333;BME280;48624;49.812;8.562;2023-02-12T08:31:28;102810.53;;;5.49;100.00
62333;BME280;48624;49.812;8.562;2023-02-12T08:33:55;102817.63;;;5.41;100.00
62333;BME280;48624;49.812;8.562;2023-02-12T08:36:22;102813.91;;;5.65;100.00
62333;BME280;48624;49.812;8.562;2023-02-12T08:38:48;102814.56;;;5.88;100.00
62333;BME280;48624;49.812;8.562;2023-02-12T08:41:17;102818.91;;;5.92;100.00
62333;BME280;48624;49.812;8.562;2023-02-12T08:43:43;102818.00;;;5.96;100.00
62333;BME280;48624;49.812;8.562;2023-02-12T08:46:10;102824.88;;;6.13;100.00
62333;BME280;48624;49.812;8.562;2023-02-12T08:48:36;102820.31;;;6.27;100.00
62333;BME280;48624;49.812;8.562;2023-02-12T08:53:37;102816.44;;;6.59;99.44
62333;BME280;48624;49.812;8.562;2023-02-12T08:56:03;102832.25;;;6.56;99.62
62333;BME280;48624;49.812;8.562;2023-02-12T08:58:28;102827.66;;;6.74;98.99
62333;BME280;48624;49.812;8.562;2023-02-12T09:00:54;102831.69;;;7.00;98.08
62333;BME280;48624;49.812;8.562;2023-02-12T09:03:19;102832.63;;;6.96;97.61
62333;BME280;48624;49.812;8.562;2023-02-12T09:05:44;102838.72;;;6.99;97.28
62333;BME280;48624;49.812;8.562;2023-02-12T09:08:10;102834.22;;;7.07;97.89
62333;BME280;48624;49.812;8.562;2023-02-12T09:10:39;102836.72;;;7.17;97.78
62333;BME280;48624;49.812;8.562;2023-02-12T09:13:09;102835.59;;;7.32;96.89
62333;BME280;48624;49.812;8.562;2023-02-12T09:15:43;102837.41;;;7.28;96.75
62333;BME280;48624;49.812;8.562;2023-02-12T09:18:10;102830.66;;;7.12;97.70
62333;BME280;48624;49.812;8.562;2023-02-12T09:20:38;102839.81;;;7.42;96.65
62333;BME280;48624;49.812;8.562;2023-02-12T09:23:05;102840.44;;;7.58;96.80
62333;BME280;48624;49.812;8.562;2023-02-12T09:25:31;102834.59;;;7.41;96.81
62333;BME280;48624;49.812;8.562;2023-02-12T09:27:59;102835.09;;;7.63;96.00
62333;BME280;48624;49.812;8.562;2023-02-12T09:30:24;102836.47;;;7.86;95.87
62333;BME280;48624;49.812;8.562;2023-02-12T09:32:49;102834.06;;;7.73;95.45
62333;BME280;48624;49.812;8.562;2023-02-12T09:35:15;102837.22;;;7.93;95.47
62333;BME280;48624;49.812;8.562;2023-02-12T09:37:41;102838.09;;;7.93;95.57
62333;BME280;48624;49.812;8.562;2023-02-12T09:40:17;102841.09;;;8.20;94.56
62333;BME280;48624;49.812;8.562;2023-02-12T09:45:39;102845.34;;;8.29;92.79
62333;BME280;48624;49.812;8.562;2023-02-12T09:50:53;102843.25;;;8.46;91.83
62333;BME280;48624;49.812;8.562;2023-02-12T09:53:22;102844.16;;;8.88;90.82
62333;BME280;48624;49.812;8.562;2023-02-12T09:55:49;102844.56;;;8.68;90.60
62333;BME280;48624;49.812;8.562;2023-02-12T09:58:30;102846.06;;;8.81;89.15
62333;BME280;48624;49.812;8.562;2023-02-12T10:00:57;102849.31;;;8.94;89.06
62333;BME280;48624;49.812;8.562;2023-02-12T10:03:23;102847.50;;;8.95;88.26
62333;BME280;48624;49.812;8.562;2023-02-12T10:05:58;102846.41;;;9.05;88.19
62333;BME280;48624;49.812;8.562;2023-02-12T10:17:12;102833.41;;;9.34;86.32
62333;BME280;48624;49.812;8.562;2023-02-12T10:22:37;102837.31;;;9.55;86.17
62333;BME280;48624;49.812;8.562;2023-02-12T10:25:22;102831.91;;;9.22;86.23
62333;BME280;48624;49.812;8.562;2023-02-12T10:27:51;102834.69;;;9.53;86.40
62333;BME280;48624;49.812;8.562;2023-02-12T10:33:30;102836.09;;;9.67;84.75
62333;BME280;48624;49.812;8.562;2023-02-12T10:36:25;102828.22;;;9.65;85.08
62333;BME280;48624;49.812;8.562;2023-02-12T10:39:21;102824.13;;;9.52;84.70
62333;BME280;48624;49.812;8.562;2023-02-12T10:41:57;102828.88;;;9.74;85.68
62333;BME280;48624;49.812;8.562;2023-02-12T10:44:25;102823.94;;;10.26;81.93
62333;BME280;48624;49.812;8.562;2023-02-12T10:46:52;102832.44;;;10.06;83.53
62333;BME280;48624;49.812;8.562;2023-02-12T10:49:18;102828.28;;;9.62;84.20
62333;BME280;48624;49.812;8.562;2023-02-12T10:54:34;102821.09;;;10.00;83.42
62333;BME280;48624;49.812;8.562;2023-02-12T10:59:53;102809.00;;;10.23;83.70
62333;BME280;48624;49.812;8.562;2023-02-12T11:02:31;102792.91;;;10.61;82.57
62333;BME280;48624;49.812;8.562;2023-02-12T11:04:58;102795.25;;;10.40;82.20
62333;BME280;48624;49.812;8.562;2023-02-12T11:07:25;102799.66;;;11.00;80.63
62333;BME280;48624;49.812;8.562;2023-02-12T11:09:53;102800.66;;;10.67;79.46
62333;BME280;48624;49.812;8.562;2023-02-12T11:12:39;102802.47;;;10.95;80.04
62333;BME280;48624;49.812;8.562;2023-02-12T11:15:18;102795.13;;;10.75;79.24
62333;BME280;48624;49.812;8.562;2023-02-12T11:17:54;102793.50;;;10.39;79.33
62333;BME280;48624;49.812;8.562;2023-02-12T11:20:31;102789.97;;;10.99;79.57
62333;BME280;48624;49.812;8.562;2023-02-12T11:22:59;102787.72;;;10.87;78.88
62333;BME280;48624;49.812;8.562;2023-02-12T11:25:27;102787.56;;;11.18;77.49
62333;BME280;48624;49.812;8.562;2023-02-12T11:28:16;102769.19;;;10.85;78.46
62333;BME280;48624;49.812;8.562;2023-02-12T11:33:39;102764.75;;;11.40;78.42
62333;BME280;48624;49.812;8.562;2023-02-12T11:36:14;102770.69;;;11.21;77.86
62333;BME280;48624;49.812;8.562;2023-02-12T11:38:54;102757.53;;;11.45;76.69
62333;BME280;48624;49.812;8.562;2023-02-12T11:41:37;102754.22;;;12.13;76.00
62333;BME280;48624;49.812;8.562;2023-02-12T11:44:11;102762.69;;;11.49;74.82
62333;BME280;48624;49.812;8.562;2023-02-12T11:46:37;102746.34;;;11.60;75.76
62333;BME280;48624;49.812;8.562;2023-02-12T11:49:05;102747.88;;;11.68;74.59
62333;BME280;48624;49.812;8.562;2023-02-12T11:51:34;102744.66;;;11.83;76.13
62333;BME280;48624;49.812;8.562;2023-02-12T11:54:03;102748.69;;;11.95;74.31
62333;BME280;48624;49.812;8.562;2023-02-12T11:56:44;102738.41;;;12.33;72.18
62333;BME280;48624;49.812;8.562;2023-02-12T11:59:39;102744.53;;;12.12;72.88
62333;BME280;48624;49.812;8.562;2023-02-12T12:02:23;102737.38;;;12.14;72.58
62333;BME280;48624;49.812;8.562;2023-02-12T12:04:53;102741.16;;;11.32;73.88
62333;BME280;48624;49.812;8.562;2023-02-12T12:07:24;102738.09;;;11.43;74.18
62333;BME280;48624;49.812;8.562;2023-02-12T12:10:00;102725.19;;;11.59;74.97
62333;BME280;48624;49.812;8.562;2023-02-12T12:12:52;102728.44;;;11.67;74.70
62333;BME280;48624;49.812;8.562;2023-02-12T12:15:23;102734.16;;;11.55;73.58
62333;BME280;48624;49.812;8.562;2023-02-12T12:18:25;102729.13;;;11.47;73.17
62333;BME280;48624;49.812;8.562;2023-02-12T12:21:19;102730.94;;;11.96;71.68
62333;BME280;48624;49.812;8.562;2023-02-12T12:23:52;102730.91;;;11.21;74.91
62333;BME280;48624;49.812;8.562;2023-02-12T12:26:26;102731.66;;;11.24;74.87
62333;BME280;48624;49.812;8.562;2023-02-12T12:29:02;102729.50;;;11.09;75.38
62333;BME280;48624;49.812;8.562;2023-02-12T12:31:34;102719.16;;;11.28;74.84
62333;BME280;48624;49.812;8.562;2023-02-12T12:34:06;102720.31;;;10.65;77.72
62333;BME280;48624;49.812;8.562;2023-02-12T12:45:46;102714.06;;;11.22;74.03
62333;BME280;48624;49.812;8.562;2023-02-12T12:48:16;102704.84;;;11.07;73.85
62333;BME280;48624;49.812;8.562;2023-02-12T12:54:03;102707.94;;;11.45;72.54
62333;BME280;48624;49.812;8.562;2023-02-12T12:56:44;102702.44;;;11.26;72.11
62333;BME280;48624;49.812;8.562;2023-02-12T12:59:43;102699.50;;;11.08;72.55
62333;BME280;48624;49.812;8.562;2023-02-12T13:13:34;102685.69;;;11.24;73.46
62333;BME280;48624;49.812;8.562;2023-02-12T13:16:13;102688.94;;;11.58;72.70
62333;BME280;48624;49.812;8.562;2023-02-12T13:18:56;102692.25;;;11.39;72.88
62333;BME280;48624;49.812;8.562;2023-02-12T13:21:33;102687.69;;;11.68;71.73
62333;BME280;48624;49.812;8.562;2023-02-12T13:24:20;102688.34;;;11.24;73.83
62333;BME280;48624;49.812;8.562;2023-02-12T13:26:57;102681.16;;;11.53;73.79
62333;BME280;48624;49.812;8.562;2023-02-12T13:29:36;102672.91;;;11.35;74.03
62333;BME280;48624;49.812;8.562;2023-02-12T13:32:15;102664.88;;;11.86;73.04
62333;BME280;48624;49.812;8.562;2023-02-12T13:34:46;102660.66;;;11.80;73.12
62333;BME280;48624;49.812;8.562;2023-02-12T13:37:41;102670.94;;;11.41;73.67
62333;BME280;48624;49.812;8.562;2023-02-12T13:40:15;102660.31;;;11.90;72.17
62333;BME280;48624;49.812;8.562;2023-02-12T13:54:19;102663.50;;;13.51;66.98
62333;BME280;48624;49.812;8.562;2023-02-12T13:56:56;102655.78;;;12.83;70.17
62333;BME280;48624;49.812;8.562;2023-02-12T14:01:58;102642.66;;;13.40;67.59
62333;BME280;48624;49.812;8.562;2023-02-12T14:04:29;102649.50;;;13.48;66.55
62333;BME280;48624;49.812;8.562;2023-02-12T14:10:03;102647.00;;;12.14;70.29
62333;BME280;48624;49.812;8.562;2023-02-12T14:12:37;102640.66;;;11.94;71.84
62333;BME280;48624;49.812;8.562;2023-02-12T14:15:08;102654.88;;;13.04;69.83
62333;BME280;48624;49.812;8.562;2023-02-12T14:25:00;102647.56;;;12.67;68.52
62333;BME280;48624;49.812;8.562;2023-02-12T14:27:33;102655.88;;;13.02;67.77
62333;BME280;48624;49.812;8.562;2023-02-12T14:32:59;102632.31;;;13.13;67.87
62333;BME280;48624;49.812;8.562;2023-02-12T14:35:46;102632.44;;;12.89;68.13
62333;BME280;48624;49.812;8.562;2023-02-12T14:40:40;102629.22;;;12.60;69.86
62333;BME280;48624;49.812;8.562;2023-02-12T14:43:35;102628.13;;;12.44;70.74
62333;BME280;48624;49.812;8.562;2023-02-12T14:48:54;102621.94;;;12.43;70.13
62333;BME280;48624;49.812;8.562;2023-02-12T14:53:55;102617.41;;;12.45;69.56
62333;BME280;48624;49.812;8.562;2023-02-12T14:56:23;102619.66;;;12.98;68.60
62333;BME280;48624;49.812;8.562;2023-02-12T14:58:51;102621.16;;;12.41;68.85
62333;BME280;48624;49.812;8.562;2023-02-12T15:01:29;102617.00;;;11.88;69.94
62333;BME280;48624;49.812;8.562;2023-02-12T15:03:56;102613.09;;;13.07;67.32
62333;BME280;48624;49.812;8.562;2023-02-12T15:06:35;102614.16;;;13.23;67.08
62333;BME280;48624;49.812;8.562;2023-02-12T15:09:12;102610.22;;;13.11;65.75
62333;BME280;48624;49.812;8.562;2023-02-12T15:11:44;102612.66;;;13.77;64.57
62333;BME280;48624;49.812;8.562;2023-02-12T15:17:07;102611.84;;;12.52;66.99
62333;BME280;48624;49.812;8.562;2023-02-12T15:22:20;102607.66;;;12.24;69.50
62333;BME280;48624;49.812;8.562;2023-02-12T15:24:46;102599.19;;;12.36;69.37